| time (UTC) | temp F | wind direction | speed knots | gust knots | rain 1hr in | rain 24hr in | rain mn in | humidity % | barometer mb |
| 20260505173258 | 53 | 203 | 5.2 | 9.6 | 0.00 | 0.00 | 0.00 | 42 | 1012.4 |
| 20260505172218 | 52 | 225 | 5.2 | 8.7 | 0.00 | 0.00 | 0.00 | 46 | 1012.0 |
| 20260505171238 | 51 | 293 | 1.7 | 4.3 | 0.00 | 0.00 | 0.00 | 46 | 1011.4 |
| 20260505170258 | 50 | 203 | 7.0 | 9.6 | 0.00 | 0.00 | 0.00 | 45 | 1011.6 |
| 20260505165218 | 49 | 203 | 7.0 | 13.0 | 0.00 | 0.00 | 0.00 | 49 | 1011.5 |
| 20260505164238 | 48 | 180 | 6.1 | 7.8 | 0.00 | 0.00 | 0.00 | 49 | 1011.4 |
| 20260505163218 | 48 | 203 | 8.7 | 10.4 | 0.00 | 0.00 | 0.00 | 50 | 1011.9 |
| 20260505162217 | 48 | 203 | 7.8 | 10.4 | 0.00 | 0.00 | 0.00 | 50 | 1011.8 |
| 20260505161217 | 48 | 225 | 6.1 | 8.7 | 0.00 | 0.00 | 0.00 | 51 | 1011.8 |
| 20260505160237 | 48 | 203 | 7.0 | 8.7 | 0.00 | 0.00 | 0.00 | 50 | 1011.6 |
| 20260505153217 | 48 | 203 | 7.0 | 13.0 | 0.00 | 0.00 | 0.00 | 51 | 1011.5 |
| 20260505152238 | 48 | 180 | 7.0 | 10.4 | 0.00 | 0.00 | 0.00 | 53 | 1011.5 |
| 20260505151218 | 48 | 203 | 3.5 | 5.2 | 0.00 | 0.00 | 0.00 | 58 | 1011.6 |
| 20260505150238 | 48 | 203 | 6.1 | 7.8 | 0.00 | 0.00 | 0.00 | 54 | 1011.6 |
| 20260505140217 | 45 | 203 | 7.0 | 10.4 | 0.00 | 0.00 | 0.00 | 64 | 1011.2 |
| 20260505130217 | 42 | 0.0 | 0.0 | 0.00 | 0.00 | 0.00 | 65 | 1010.8 | |
| 20260505124217 | 43 | 0.0 | 0.0 | 0.00 | 0.00 | 0.00 | 64 | 1010.9 | |
| 20260505123217 | 43 | 203 | 4.3 | 5.2 | 0.00 | 0.00 | 0.00 | 64 | 1011.0 |
| 20260505122218 | 43 | 225 | 2.6 | 5.2 | 0.00 | 0.00 | 0.00 | 64 | 1010.9 |
| 20260505121217 | 44 | 203 | 0.9 | 2.6 | 0.00 | 0.00 | 0.00 | 63 | 1010.9 |
| 20260505120217 | 44 | 0.0 | 0.0 | 0.00 | 0.00 | 0.00 | 62 | 1011.4 | |
| 20260505115238 | 44 | 0.0 | 1.7 | 0.00 | 0.00 | 0.00 | 61 | 1011.6 | |
| 20260505114217 | 44 | 315 | 2.6 | 3.5 | 0.00 | 0.00 | 0.00 | 61 | 1011.7 |
| 20260505113217 | 44 | 203 | 3.5 | 8.7 | 0.00 | 0.00 | 0.00 | 62 | 1011.8 |
| 20260505112237 | 44 | 203 | 8.7 | 14.8 | 0.00 | 0.00 | 0.00 | 63 | 1011.8 |
| 20260505111217 | 44 | 225 | 4.3 | 7.8 | 0.00 | 0.00 | 0.00 | 63 | 1011.7 |
| 20260505110217 | 44 | 203 | 4.3 | 7.0 | 0.00 | 0.00 | 0.00 | 61 | 1011.6 |
| 20260505102217 | 44 | 203 | 3.5 | 7.0 | 0.00 | 0.00 | 0.00 | 54 | 1011.8 |
| 20260505101217 | 44 | 270 | 0.9 | 5.2 | 0.00 | 0.00 | 0.00 | 55 | 1012.0 |
| 20260505100217 | 44 | 203 | 3.5 | 4.3 | 0.00 | 0.00 | 0.00 | 55 | 1012.3 |
| 20260505095217 | 44 | 225 | 4.3 | 7.0 | 0.00 | 0.00 | 0.00 | 55 | 1012.4 |
| 20260505094217 | 44 | 225 | 4.3 | 7.0 | 0.00 | 0.00 | 0.00 | 54 | 1012.7 |
| 20260505093217 | 44 | 225 | 3.5 | 8.7 | 0.00 | 0.00 | 0.00 | 52 | 1012.7 |
| 20260505092217 | 44 | 180 | 6.1 | 10.4 | 0.00 | 0.00 | 0.00 | 54 | 1012.6 |
| 20260505091217 | 45 | 203 | 5.2 | 7.0 | 0.00 | 0.00 | 0.00 | 52 | 1012.6 |
| 20260505090217 | 45 | 203 | 7.0 | 8.7 | 0.00 | 0.00 | 0.00 | 52 | 1012.8 |
| 20260505085217 | 45 | 225 | 2.6 | 5.2 | 0.00 | 0.00 | 0.00 | 49 | 1013.1 |
| 20260505084217 | 46 | 248 | 4.3 | 7.0 | 0.00 | 0.00 | 0.00 | 48 | 1013.0 |
| 20260505083217 | 46 | 203 | 8.7 | 13.9 | 0.00 | 0.00 | 0.00 | 46 | 1013.1 |
| 20260505082216 | 45 | 203 | 5.2 | 21.7 | 0.00 | 0.00 | 0.00 | 49 | 1013.4 |
| 20260505081217 | 45 | 270 | 4.3 | 8.7 | 0.00 | 0.00 | 0.00 | 47 | 1013.3 |
| 20260505080217 | 46 | 270 | 0.9 | 3.5 | 0.00 | 0.00 | 0.00 | 45 | 1013.6 |
| 20260505075217 | 46 | 180 | 7.0 | 10.4 | 0.00 | 0.00 | 0.00 | 44 | 1013.8 |
| 20260505074216 | 46 | 248 | 2.6 | 5.2 | 0.00 | 0.00 | 0.00 | 43 | 1013.8 |
| 20260505073237 | 46 | 293 | 3.5 | 8.7 | 0.00 | 0.00 | 0.00 | 42 | 1013.6 |
| 20260505072218 | 46 | 203 | 7.8 | 13.9 | 0.00 | 0.00 | 0.00 | 42 | 1013.0 |
| 20260505071217 | 46 | 180 | 8.7 | 21.7 | 0.00 | 0.00 | 0.00 | 42 | 1012.8 |
| 20260505070346 | 46 | 203 | 7.0 | 10.4 | 0.00 | 0.00 | 0.00 | 43 | 1012.5 |
| 20260505065218 | 47 | 203 | 7.0 | 11.3 | 0.00 | 0.00 | 0.00 | 43 | 1012.8 |
| 20260505064239 | 47 | 203 | 8.7 | 14.8 | 0.00 | 0.00 | 0.00 | 46 | 1012.6 |
| 20260505063218 | 47 | 203 | 13.9 | 19.1 | 0.00 | 0.00 | 0.00 | 49 | 1011.7 |
| 20260505062218 | 47 | 203 | 13.9 | 24.3 | 0.00 | 0.00 | 0.00 | 50 | 1011.8 |
| 20260505061219 | 47 | 203 | 13.0 | 22.6 | 0.00 | 0.00 | 0.00 | 50 | 1011.6 |
| 20260505060239 | 48 | 203 | 10.4 | 14.8 | 0.00 | 0.00 | 0.00 | 50 | 1011.5 |
| 20260505055218 | 48 | 203 | 12.2 | 21.7 | 0.00 | 0.00 | 0.00 | 48 | 1011.3 |
| 20260505054239 | 48 | 203 | 17.4 | 23.5 | 0.00 | 0.00 | 0.00 | 47 | 1011.6 |
| 20260505053238 | 48 | 203 | 15.6 | 20.9 | 0.00 | 0.00 | 0.00 | 46 | 1011.6 |
| 20260505052218 | 48 | 203 | 12.2 | 17.4 | 0.00 | 0.00 | 0.00 | 43 | 1011.4 |
| 20260505051238 | 49 | 203 | 13.9 | 20.9 | 0.00 | 0.00 | 0.00 | 41 | 1011.5 |
| 20260505050218 | 49 | 203 | 13.0 | 19.1 | 0.00 | 0.00 | 0.00 | 38 | 1011.5 |
| 20260505041238 | 50 | 203 | 12.2 | 16.5 | 0.00 | 0.00 | 0.00 | 33 | 1011.4 |
| 20260505040218 | 50 | 203 | 11.3 | 19.1 | 0.00 | 0.00 | 0.00 | 32 | 1010.8 |
| 20260505035217 | 50 | 203 | 18.2 | 27.8 | 0.00 | 0.00 | 0.00 | 32 | 1010.7 |
| 20260505034217 | 51 | 225 | 14.8 | 23.5 | 0.00 | 0.00 | 0.00 | 32 | 1010.9 |
| 20260505033217 | 51 | 225 | 13.9 | 24.3 | 0.00 | 0.00 | 0.00 | 31 | 1010.5 |
| 20260505032218 | 51 | 203 | 14.8 | 19.1 | 0.00 | 0.00 | 0.00 | 29 | 1010.2 |
| 20260505031217 | 51 | 203 | 15.6 | 22.6 | 0.00 | 0.00 | 0.00 | 29 | 1010.1 |
| 20260505030238 | 51 | 203 | 13.9 | 20.9 | 0.00 | 0.00 | 0.00 | 28 | 1009.4 |
| 20260505025218 | 52 | 203 | 12.2 | 17.4 | 0.00 | 0.00 | 0.00 | 28 | 1009.2 |
| 20260505024217 | 52 | 225 | 14.8 | 25.2 | 0.00 | 0.00 | 0.00 | 30 | 1009.4 |
| 20260505023259 | 52 | 203 | 10.4 | 17.4 | 0.00 | 0.00 | 0.00 | 31 | 1009.7 |
| 20260505022217 | 52 | 203 | 13.0 | 22.6 | 0.00 | 0.00 | 0.00 | 32 | 1009.1 |
| 20260505021217 | 52 | 203 | 12.2 | 20.0 | 0.00 | 0.00 | 0.00 | 33 | 1009.5 |
| 20260505020217 | 52 | 203 | 15.6 | 20.9 | 0.00 | 0.00 | 0.00 | 33 | 1009.8 |
| 20260505015217 | 52 | 203 | 13.9 | 19.1 | 0.00 | 0.00 | 0.00 | 34 | 1009.6 |
| 20260505014217 | 52 | 203 | 16.5 | 21.7 | 0.00 | 0.00 | 0.00 | 33 | 1009.4 |
| 20260505013217 | 53 | 225 | 15.6 | 26.1 | 0.00 | 0.00 | 0.00 | 34 | 1009.3 |
| 20260505012217 | 53 | 203 | 16.5 | 21.7 | 0.00 | 0.00 | 0.00 | 35 | 1009.3 |
| 20260505011218 | 53 | 203 | 12.2 | 18.2 | 0.00 | 0.00 | 0.00 | 36 | 1009.3 |
| 20260505010217 | 53 | 203 | 19.1 | 26.9 | 0.00 | 0.00 | 0.00 | 37 | 1009.2 |
| 20260505005218 | 54 | 203 | 15.6 | 20.9 | 0.00 | 0.00 | 0.00 | 38 | 1009.6 |
| 20260505004217 | 54 | 203 | 17.4 | 26.1 | 0.00 | 0.00 | 0.00 | 38 | 1009.9 |
| 20260505003218 | 55 | 203 | 13.9 | 18.2 | 0.00 | 0.00 | 0.00 | 37 | 1010.3 |
| 20260505002217 | 55 | 203 | 15.6 | 21.7 | 0.00 | 0.00 | 0.00 | 37 | 1010.4 |
| 20260505001217 | 55 | 203 | 14.8 | 19.1 | 0.00 | 0.00 | 0.00 | 36 | 1010.3 |
| 20260505000218 | 56 | 203 | 13.0 | 18.2 | 0.00 | 0.00 | 0.00 | 35 | 1010.5 |
| 20260504235217 | 56 | 203 | 14.8 | 22.6 | 0.00 | 0.00 | 0.00 | 35 | 1010.4 |
| 20260504234218 | 56 | 203 | 16.5 | 20.9 | 0.00 | 0.00 | 0.00 | 34 | 1010.2 |
| 20260504233217 | 56 | 203 | 15.6 | 20.0 | 0.00 | 0.00 | 0.00 | 33 | 1010.3 |
| 20260504232238 | 57 | 203 | 15.6 | 21.7 | 0.00 | 0.00 | 0.00 | 31 | 1010.6 |
| 20260504231217 | 57 | 203 | 17.4 | 22.6 | 0.00 | 0.00 | 0.00 | 30 | 1010.7 |
| 20260504230238 | 57 | 203 | 18.2 | 20.9 | 0.00 | 0.00 | 0.00 | 30 | 1010.2 |
| 20260504225218 | 57 | 203 | 14.8 | 20.9 | 0.00 | 0.00 | 0.00 | 28 | 1010.3 |
| 20260504224217 | 58 | 203 | 18.2 | 26.1 | 0.00 | 0.00 | 0.00 | 29 | 1010.6 |
| 20260504223218 | 58 | 203 | 14.8 | 18.2 | 0.00 | 0.00 | 0.00 | 31 | 1010.8 |
| 20260504222217 | 59 | 203 | 17.4 | 23.5 | 0.00 | 0.00 | 0.00 | 32 | 1010.7 |
| 20260504221237 | 59 | 203 | 15.6 | 21.7 | 0.00 | 0.00 | 0.00 | 32 | 1011.0 |
| 20260504220217 | 59 | 225 | 13.9 | 26.1 | 0.00 | 0.00 | 0.00 | 32 | 1011.7 |
| 20260504215217 | 58 | 203 | 17.4 | 22.6 | 0.00 | 0.00 | 0.00 | 32 | 1011.8 |
| 20260504214217 | 58 | 180 | 15.6 | 20.9 | 0.00 | 0.00 | 0.00 | 33 | 1011.9 |
| 20260504213217 | 59 | 203 | 16.5 | 19.1 | 0.00 | 0.00 | 0.00 | 29 | 1012.1 |
| 20260504212218 | 58 | 203 | 13.9 | 18.2 | 0.00 | 0.00 | 0.00 | 32 | 1012.2 |
| 20260504211217 | 59 | 203 | 14.8 | 19.1 | 0.00 | 0.00 | 0.00 | 32 | 1012.1 |
| 20260504210218 | 58 | 203 | 12.2 | 19.1 | 0.00 | 0.00 | 0.00 | 35 | 1011.9 |
| 20260504205217 | 59 | 203 | 13.0 | 17.4 | 0.00 | 0.00 | 0.00 | 32 | 1012.4 |
| 20260504204218 | 59 | 203 | 15.6 | 21.7 | 0.00 | 0.00 | 0.00 | 34 | 1012.7 |
| 20260504203217 | 59 | 203 | 13.9 | 20.9 | 0.00 | 0.00 | 0.00 | 35 | 1012.9 |
| 20260504202238 | 60 | 225 | 12.2 | 15.6 | 0.00 | 0.00 | 0.00 | 35 | 1013.3 |
| 20260504201217 | 61 | 203 | 10.4 | 14.8 | 0.00 | 0.00 | 0.00 | 34 | 1013.1 |
| 20260504200217 | 61 | 203 | 15.6 | 20.0 | 0.00 | 0.00 | 0.00 | 31 | 1013.8 |
| 20260504195218 | 61 | 225 | 13.9 | 21.7 | 0.00 | 0.00 | 0.00 | 29 | 1013.6 |
| 20260504194217 | 61 | 203 | 17.4 | 21.7 | 0.00 | 0.00 | 0.00 | 28 | 1013.3 |
| 20260504193217 | 61 | 203 | 13.9 | 17.4 | 0.00 | 0.00 | 0.00 | 32 | 1013.8 |
| 20260504192218 | 60 | 203 | 17.4 | 21.7 | 0.00 | 0.00 | 0.00 | 31 | 1013.6 |
| 20260504191237 | 59 | 225 | 9.6 | 17.4 | 0.00 | 0.00 | 0.00 | 35 | 1012.9 |
| 20260504190218 | 59 | 203 | 12.2 | 19.1 | 0.00 | 0.00 | 0.00 | 39 | 1013.6 |
| 20260504185258 | 58 | 203 | 11.3 | 15.6 | 0.00 | 0.00 | 0.00 | 41 | 1013.5 |
| 20260504184217 | 57 | 203 | 10.4 | 15.6 | 0.00 | 0.00 | 0.00 | 45 | 1013.5 |
| 20260504183217 | 57 | 203 | 10.4 | 15.6 | 0.00 | 0.00 | 0.00 | 43 | 1013.6 |
| 20260504182218 | 56 | 203 | 10.4 | 14.8 | 0.00 | 0.00 | 0.00 | 47 | 1013.9 |
| 20260504181217 | 55 | 180 | 11.3 | 16.5 | 0.00 | 0.00 | 0.00 | 48 | 1013.7 |
| 20260504180237 | 55 | 180 | 10.4 | 13.9 | 0.00 | 0.00 | 0.00 | 49 | 1013.5 |
| 20260504175217 | 54 | 203 | 11.3 | 13.9 | 0.00 | 0.00 | 0.00 | 48 | 1013.7 |
| 20260504174217 | 53 | 180 | 9.6 | 16.5 | 0.00 | 0.00 | 0.00 | 49 | 1013.2 |